createdAt,value
2016-06-20T08:10:28.635Z,24.46
2016-06-20T08:11:28.577Z,24.45
2016-06-20T08:12:28.564Z,24.45
2016-06-20T08:13:28.583Z,24.55
2016-06-20T08:14:28.587Z,24.48
2016-06-20T08:15:28.637Z,24.64
2016-06-20T08:16:28.594Z,24.45
2016-06-20T08:17:28.613Z,24.56
2016-06-20T08:18:28.616Z,24.56
2016-06-20T08:19:28.604Z,24.64
2016-06-20T08:20:28.623Z,24.59
2016-06-20T08:21:28.626Z,24.69
2016-06-20T08:22:28.629Z,24.61
2016-06-20T08:23:28.633Z,24.59
2016-06-20T08:24:28.636Z,24.63
2016-06-20T08:25:28.672Z,24.74
2016-06-20T08:26:28.659Z,24.75
2016-06-20T08:27:28.663Z,24.67
2016-06-20T08:28:28.682Z,24.75
2016-06-20T08:29:28.669Z,24.75
2016-06-20T08:30:29.314Z,24.69
2016-06-20T08:31:28.708Z,24.7
2016-06-20T08:32:28.711Z,24.69
2016-06-20T08:33:28.714Z,24.69
2016-06-20T08:34:29.891Z,24.67
2016-06-20T08:35:28.753Z,24.78
2016-06-20T08:36:28.741Z,24.74
2016-06-20T08:37:28.728Z,24.71
2016-06-20T08:38:28.779Z,24.7
2016-06-20T08:39:28.735Z,24.74
2016-06-20T08:40:28.786Z,24.78
2016-06-20T08:41:28.774Z,24.71
2016-06-20T08:42:28.761Z,24.74
2016-06-20T08:43:28.765Z,24.74
2016-06-20T08:44:29.113Z,24.71
2016-06-20T08:45:28.787Z,24.74
2016-06-20T08:46:28.807Z,24.71
2016-06-20T08:47:28.794Z,24.66
2016-06-20T08:48:29.079Z,24.7
2016-06-20T08:49:30.505Z,24.74
2016-06-20T08:50:31.243Z,24.71
2016-06-20T08:51:29.027Z,24.75
2016-06-20T08:52:28.828Z,24.67
2016-06-20T08:53:28.847Z,24.74
2016-06-20T08:54:29.600Z,24.7
2016-06-20T08:55:28.854Z,24.67
2016-06-20T08:56:28.873Z,24.75
2016-06-20T08:57:28.861Z,24.71
2016-06-20T08:58:29.551Z,24.7
2016-06-20T08:59:28.883Z,24.78
2016-06-20T09:00:28.918Z,24.71
2016-06-20T09:01:28.889Z,24.7
2016-06-20T09:02:28.909Z,24.71
2016-06-20T09:03:28.913Z,24.67
2016-06-20T09:04:28.932Z,24.71
2016-06-20T09:05:29.232Z,24.75
2016-06-20T09:06:28.938Z,24.71
2016-06-20T09:07:28.943Z,24.66
2016-06-20T09:08:28.946Z,24.71
2016-06-20T09:09:29.292Z,24.64
2016-06-20T09:10:30.640Z,24.66
2016-06-20T09:11:28.957Z,24.7
2016-06-20T09:12:28.975Z,24.63
2016-06-20T09:13:28.979Z,24.63
2016-06-20T09:14:28.997Z,24.66
2016-06-20T09:15:28.985Z,24.66
2016-06-20T09:16:29.020Z,24.59
2016-06-20T09:17:30.195Z,24.59
2016-06-20T09:18:29.042Z,24.63
2016-06-20T09:19:29.015Z,24.63
2016-06-20T09:20:29.033Z,24.58
2016-06-20T09:21:29.022Z,24.61
2016-06-20T09:22:29.040Z,24.69
2016-06-20T09:23:29.060Z,24.61
2016-06-20T09:24:29.047Z,24.61
2016-06-20T09:25:29.066Z,24.59
2016-06-20T09:26:30.179Z,24.59
2016-06-20T09:27:31.027Z,24.58
2016-06-20T09:28:29.093Z,24.55
2016-06-20T09:29:29.518Z,24.61
2016-06-20T09:52:20.004Z,24.58
2016-06-20T09:53:16.897Z,24.58
